Time;durP1;ratioP1;P1;durP2;ratioP2;P2;SDS_P1;SDS_P2;PMS_P1;PMS_P2;Temp;Humidity;BMP_temperature;BMP_pressure;BME280_temperature;BME280_humidity;BME280_pressure;Samples;Min_cycle;Max_cycle;Signal;HPM_P1;HPM_P2
2022/07/23 00:01:20;;;;;;;5.40;2.47;;;12.60;99.90;;;;;;5049680;28;20087;-46
2022/07/23 00:03:46;;;;;;;7.53;2.80;;;12.10;99.90;;;;;;5049198;28;20178;-46
2022/07/23 00:06:11;;;;;;;7.95;2.50;;;12.60;99.90;;;;;;5049106;28;20179;-46
2022/07/23 00:08:37;;;;;;;5.88;3.33;;;12.30;99.90;;;;;;5049185;28;20052;-46
2022/07/23 00:11:03;;;;;;;6.15;3.38;;;12.60;99.90;;;;;;5048270;28;20041;-46
2022/07/23 00:13:28;;;;;;;8.52;3.63;;;12.30;99.90;;;;;;5049043;28;20127;-47
2022/07/23 00:15:55;;;;;;;5.80;3.65;;;12.70;99.90;;;;;;5049227;28;20033;-45
2022/07/23 00:18:20;;;;;;;4.15;2.90;;;12.70;99.90;;;;;;5049345;28;20048;-46
2022/07/23 00:20:46;;;;;;;5.22;2.97;;;12.30;99.90;;;;;;5049157;28;20414;-47
2022/07/23 00:23:12;;;;;;;7.00;2.85;;;12.50;99.90;;;;;;5049310;28;20052;-45
2022/07/23 00:25:38;;;;;;;4.78;2.72;;;12.30;99.90;;;;;;5049184;28;20045;-47
2022/07/23 00:28:04;;;;;;;4.05;2.30;;;12.40;99.90;;;;;;5049053;28;20350;-46
2022/07/23 00:30:31;;;;;;;4.07;3.30;;;12.30;99.90;;;;;;5049007;28;20083;-45
2022/07/23 00:33:04;;;;;;;5.40;3.17;;;12.60;99.90;;;;;;5048579;28;20573;-47
2022/07/23 00:35:33;;;;;;;6.03;3.70;;;12.20;99.90;;;;;;5049361;28;20128;-47
2022/07/23 00:38:00;;;;;;;5.53;3.88;;;12.50;99.90;;;;;;5048853;28;20128;-45
2022/07/23 00:40:27;;;;;;;6.57;3.15;;;12.20;99.90;;;;;;5048411;28;20051;-44
2022/07/23 00:42:53;;;;;;;7.25;3.33;;;12.00;99.90;;;;;;5048399;28;20040;-45
2022/07/23 00:45:19;;;;;;;6.28;3.30;;;12.70;99.90;;;;;;5030648;28;20052;-47
2022/07/23 00:47:45;;;;;;;6.45;4.00;;;11.90;99.90;;;;;;5048530;28;20040;-47
2022/07/23 00:50:11;;;;;;;5.57;3.75;;;12.40;99.90;;;;;;5047964;28;20517;-45
2022/07/23 00:52:38;;;;;;;5.22;3.03;;;12.00;99.90;;;;;;5048241;28;20033;-45
2022/07/23 00:55:05;;;;;;;9.93;3.83;;;11.40;99.90;;;;;;5047840;28;20055;-46
2022/07/23 00:57:31;;;;;;;7.28;3.50;;;11.30;99.90;;;;;;5048038;28;20053;-45
2022/07/23 00:59:57;;;;;;;8.07;3.63;;;11.70;99.90;;;;;;5048001;28;20041;-46
2022/07/23 01:02:24;;;;;;;8.02;3.53;;;12.00;99.90;;;;;;5048426;28;20048;-45
2022/07/23 01:04:50;;;;;;;7.10;4.43;;;11.40;99.90;;;;;;5030428;28;20398;-46
2022/07/23 01:07:18;;;;;;;9.77;3.63;;;11.40;99.90;;;;;;5047762;28;20057;-45
2022/07/23 01:09:44;;;;;;;9.52;3.38;;;11.50;99.90;;;;;;5047536;28;20045;-46
2022/07/23 01:12:10;;;;;;;4.40;3.00;;;11.20;99.90;;;;;;5047558;28;20126;-48
2022/07/23 01:14:36;;;;;;;7.07;3.80;;;11.10;99.90;;;;;;5047876;28;20520;-46
2022/07/23 01:17:02;;;;;;;7.93;3.55;;;11.10;99.90;;;;;;5048016;28;20033;-46
2022/07/23 01:19:27;;;;;;;10.07;4.25;;;10.80;99.90;;;;;;5047789;28;20052;-46
2022/07/23 01:21:56;;;;;;;5.60;3.70;;;10.70;99.90;;;;;;5047954;28;20057;-46
2022/07/23 01:24:22;;;;;;;5.50;3.55;;;10.50;99.90;;;;;;5048269;28;20048;-46
2022/07/23 01:26:49;;;;;;;6.10;3.42;;;10.50;99.90;;;;;;5047636;28;20102;-47
2022/07/23 01:29:15;;;;;;;6.75;3.15;;;11.60;99.90;;;;;;5047808;28;20604;-46
2022/07/23 01:31:42;;;;;;;8.32;3.45;;;10.30;99.90;;;;;;5047766;28;20098;-46
2022/07/23 01:34:07;;;;;;;7.22;4.55;;;10.30;99.90;;;;;;5047653;28;20037;-47
2022/07/23 01:36:34;;;;;;;7.93;3.40;;;10.20;99.90;;;;;;5047695;28;20091;-46
2022/07/23 01:39:00;;;;;;;6.90;3.60;;;10.20;99.90;;;;;;5047702;28;20044;-49
2022/07/23 01:41:26;;;;;;;6.93;3.78;;;10.30;99.90;;;;;;5047450;28;20053;-45
2022/07/23 01:43:51;;;;;;;11.05;4.10;;;10.10;99.90;;;;;;5047682;28;20533;-46
2022/07/23 01:46:18;;;;;;;10.75;4.63;;;10.10;99.90;;;;;;5029239;28;20045;-45
2022/07/23 01:48:43;;;;;;;7.65;3.60;;;10.60;99.90;;;;;;5047844;28;20037;-45
2022/07/23 01:51:09;;;;;;;8.27;4.05;;;10.10;99.90;;;;;;5046542;28;20049;-45
2022/07/23 01:53:35;;;;;;;9.15;4.60;;;10.00;99.90;;;;;;5047595;28;20037;-46
2022/07/23 01:56:01;;;;;;;6.78;4.28;;;10.00;99.90;;;;;;5047467;28;20127;-49
2022/07/23 01:58:27;;;;;;;6.72;2.97;;;9.80;99.90;;;;;;5047204;28;20380;-46
2022/07/23 02:00:53;;;;;;;5.47;2.90;;;10.00;99.90;;;;;;5046993;28;20075;-45
2022/07/23 02:03:19;;;;;;;6.30;2.80;;;9.90;99.90;;;;;;5046569;28;20048;-47
2022/07/23 02:05:45;;;;;;;3.65;1.70;;;9.90;99.90;;;;;;5046757;28;20077;-46
2022/07/23 02:08:11;;;;;;;4.25;1.60;;;9.80;99.90;;;;;;5046188;28;20095;-48
2022/07/23 02:10:36;;;;;;;3.25;1.80;;;9.80;99.90;;;;;;5046192;28;20056;-45
2022/07/23 02:13:02;;;;;;;4.80;2.63;;;9.80;99.90;;;;;;5046547;28;20403;-45
2022/07/23 02:15:28;;;;;;;5.60;2.97;;;10.40;99.90;;;;;;5046549;28;20045;-48
2022/07/23 02:17:54;;;;;;;7.63;3.58;;;9.70;99.90;;;;;;5046702;28;20435;-46
2022/07/23 02:20:20;;;;;;;5.03;3.33;;;9.40;99.90;;;;;;5046967;28;20037;-45
2022/07/23 02:22:46;;;;;;;7.55;3.65;;;9.50;99.90;;;;;;5047127;28;20045;-46
2022/07/23 02:25:11;;;;;;;7.43;3.50;;;10.10;99.90;;;;;;5047268;28;20036;-46
2022/07/23 02:27:37;;;;;;;5.45;3.25;;;9.80;99.90;;;;;;5047020;28;20049;-45
2022/07/23 02:30:04;;;;;;;8.18;3.67;;;9.60;99.90;;;;;;5046513;28;20040;-45
2022/07/23 02:32:30;;;;;;;5.85;3.33;;;9.60;99.90;;;;;;5046301;28;20041;-49
2022/07/23 02:34:56;;;;;;;5.70;3.53;;;9.50;99.90;;;;;;5046684;28;20631;-47
2022/07/23 02:37:21;;;;;;;6.68;3.95;;;9.50;99.90;;;;;;5046152;28;20052;-45
2022/07/23 02:39:48;;;;;;;10.40;4.07;;;9.60;99.90;;;;;;5028665;28;20056;-46
2022/07/23 02:42:14;;;;;;;7.40;4.68;;;9.50;99.90;;;;;;5046211;28;20118;-46
2022/07/23 02:44:40;;;;;;;6.75;3.70;;;10.20;99.90;;;;;;5046532;28;20051;-48
2022/07/23 02:47:05;;;;;;;9.68;4.97;;;9.40;99.90;;;;;;5045929;28;20716;-47
2022/07/23 02:49:31;;;;;;;10.02;4.30;;;9.40;99.90;;;;;;5046574;28;20040;-45
2022/07/23 02:51:57;;;;;;;7.25;3.83;;;9.40;99.90;;;;;;5046695;28;20041;-46
2022/07/23 02:54:23;;;;;;;12.23;6.32;;;9.30;99.90;;;;;;5046262;28;20040;-46
2022/07/23 02:56:50;;;;;;;6.53;4.20;;;9.30;99.90;;;;;;5046547;28;20044;-47
2022/07/23 02:59:16;;;;;;;7.88;3.83;;;9.30;99.90;;;;;;5046110;28;20053;-46
2022/07/23 03:01:41;;;;;;;8.00;4.20;;;9.20;99.90;;;;;;5046103;28;20056;-45
2022/07/23 03:04:07;;;;;;;10.00;4.63;;;9.30;99.90;;;;;;5046038;28;20044;-47
2022/07/23 03:06:33;;;;;;;8.50;4.05;;;9.00;99.90;;;;;;5046002;28;20057;-45
2022/07/23 03:08:59;;;;;;;5.28;3.33;;;9.30;99.90;;;;;;5046503;28;20115;-47
2022/07/23 03:11:24;;;;;;;6.85;4.32;;;9.10;99.90;;;;;;5045037;28;20131;-49
2022/07/23 03:13:50;;;;;;;6.97;2.97;;;9.30;99.90;;;;;;5045467;28;20503;-46
2022/07/23 03:16:16;;;;;;;11.38;4.03;;;9.30;99.90;;;;;;5045749;28;20047;-46
2022/07/23 03:18:41;;;;;;;25.15;4.65;;;9.20;99.90;;;;;;5046012;28;20060;-45
2022/07/23 03:21:07;;;;;;;7.72;4.45;;;9.10;99.90;;;;;;5045823;28;20118;-45
2022/07/23 03:23:33;;;;;;;7.82;4.20;;;9.30;99.90;;;;;;5045939;28;20044;-47
2022/07/23 03:25:59;;;;;;;7.32;3.40;;;9.50;99.90;;;;;;5027856;28;20053;-46
2022/07/23 03:28:24;;;;;;;7.10;2.50;;;9.30;99.90;;;;;;5045720;28;20052;-44
2022/07/23 03:30:50;;;;;;;5.63;1.80;;;9.00;99.90;;;;;;5046026;28;20048;-46
2022/07/23 03:33:17;;;;;;;12.32;4.82;;;9.20;99.90;;;;;;5028116;28;20135;-45
2022/07/23 03:35:44;;;;;;;10.63;4.85;;;9.30;99.90;;;;;;5046194;28;20048;-46
2022/07/23 03:38:10;;;;;;;8.80;4.93;;;9.10;99.90;;;;;;5045702;28;20041;-46
2022/07/23 03:40:36;;;;;;;13.05;5.63;;;9.20;99.90;;;;;;5045648;28;20049;-45
2022/07/23 03:43:01;;;;;;;8.20;4.60;;;10.00;99.90;;;;;;5046099;28;20037;-45
2022/07/23 03:45:27;;;;;;;9.68;3.90;;;9.20;99.90;;;;;;5045627;28;20179;-45
2022/07/23 03:47:53;;;;;;;8.55;4.13;;;9.20;99.90;;;;;;5045490;28;20498;-47
2022/07/23 03:50:19;;;;;;;9.75;5.10;;;9.10;99.90;;;;;;5045378;28;20071;-45
2022/07/23 03:52:45;;;;;;;9.60;4.70;;;9.20;99.90;;;;;;5045503;28;20190;-46
2022/07/23 03:55:10;;;;;;;16.98;5.72;;;9.50;99.90;;;;;;5045575;28;20547;-47
2022/07/23 03:57:36;;;;;;;8.13;4.97;;;9.20;99.90;;;;;;5045465;28;20049;-45
2022/07/23 04:00:06;;;;;;;8.75;4.75;;;9.00;99.90;;;;;;5045706;28;20041;-45
2022/07/23 04:02:31;;;;;;;10.70;5.47;;;9.20;99.90;;;;;;5045635;28;20048;-46
2022/07/23 04:04:58;;;;;;;9.48;4.80;;;8.90;99.90;;;;;;5045980;28;20454;-47
2022/07/23 04:07:23;;;;;;;9.35;4.82;;;9.10;99.90;;;;;;5045549;28;20052;-46
2022/07/23 04:09:49;;;;;;;9.50;4.93;;;9.20;99.90;;;;;;5026856;28;20379;-46
2022/07/23 04:12:15;;;;;;;14.73;5.93;;;9.00;99.90;;;;;;5045352;28;20049;-46
2022/07/23 04:14:40;;;;;;;10.07;5.72;;;9.20;99.90;;;;;;5047420;28;20044;-45
2022/07/23 04:17:06;;;;;;;12.02;6.50;;;9.10;99.90;;;;;;5049445;28;20056;-47
2022/07/23 04:19:32;;;;;;;23.95;7.88;;;9.20;99.90;;;;;;5049187;28;20041;-46
2022/07/23 04:21:58;;;;;;;17.67;7.30;;;9.30;99.90;;;;;;5048927;28;20068;-48
2022/07/23 04:24:23;;;;;;;14.60;6.40;;;9.20;99.90;;;;;;5049055;28;20143;-46
2022/07/23 04:26:49;;;;;;;15.65;7.60;;;9.50;99.90;;;;;;5048992;28;20044;-46
2022/07/23 04:29:15;;;;;;;12.55;6.63;;;9.50;99.90;;;;;;5049156;28;20592;-47
2022/07/23 04:31:40;;;;;;;15.93;7.22;;;9.90;99.90;;;;;;5049264;28;20123;-46
2022/07/23 04:34:06;;;;;;;11.00;6.38;;;9.90;99.90;;;;;;5049028;28;20087;-46
2022/07/23 04:36:32;;;;;;;12.05;6.10;;;9.70;99.90;;;;;;5048965;28;20055;-48
2022/07/23 04:38:58;;;;;;;14.15;7.10;;;9.80;99.90;;;;;;5049246;28;20139;-46
2022/07/23 04:41:23;;;;;;;12.73;6.10;;;9.90;99.90;;;;;;5049371;28;20467;-45
2022/07/23 04:43:49;;;;;;;15.15;7.35;;;10.00;99.90;;;;;;5049553;28;20129;-45
2022/07/23 04:46:15;;;;;;;12.10;6.82;;;10.10;99.90;;;;;;5048825;28;20045;-46
2022/07/23 04:48:42;;;;;;;14.63;7.00;;;10.10;99.90;;;;;;5048701;28;20041;-46
2022/07/23 04:51:07;;;;;;;12.90;7.35;;;10.80;99.90;;;;;;5048880;28;20075;-46
2022/07/23 04:53:33;;;;;;;13.05;6.45;;;10.10;99.90;;;;;;5048892;28;20414;-46
2022/07/23 04:55:59;;;;;;;16.42;7.57;;;10.30;99.90;;;;;;5048998;28;20115;-47
2022/07/23 04:58:25;;;;;;;10.88;7.13;;;10.20;99.90;;;;;;5048466;28;20375;-47
2022/07/23 05:00:50;;;;;;;11.85;7.00;;;10.20;99.90;;;;;;5048794;28;20048;-46
2022/07/23 05:03:17;;;;;;;16.40;6.97;;;10.60;99.90;;;;;;5048648;28;20430;-45
2022/07/23 05:05:43;;;;;;;12.38;7.35;;;11.00;99.90;;;;;;5048135;28;20041;-45
2022/07/23 05:08:08;;;;;;;12.10;7.43;;;10.80;99.90;;;;;;5047945;28;20057;-47
2022/07/23 05:10:34;;;;;;;12.93;7.68;;;11.00;99.90;;;;;;5047192;28;20091;-46
2022/07/23 05:13:00;;;;;;;13.27;6.90;;;11.10;99.90;;;;;;5048270;28;20041;-47
2022/07/23 05:15:25;;;;;;;14.10;7.28;;;12.10;99.90;;;;;;5047848;28;20045;-46
2022/07/23 05:17:51;;;;;;;11.15;7.30;;;11.50;99.90;;;;;;5047685;28;20041;-46
2022/07/23 05:20:17;;;;;;;12.73;7.53;;;12.20;99.90;;;;;;5047926;28;20087;-45
2022/07/23 05:22:43;;;;;;;10.52;6.85;;;11.80;99.90;;;;;;5047751;28;20119;-46
2022/07/23 05:25:08;;;;;;;12.80;7.30;;;12.00;99.90;;;;;;5047973;28;20079;-47
2022/07/23 05:27:34;;;;;;;14.02;7.63;;;12.20;99.90;;;;;;5047316;28;20079;-46
2022/07/23 05:30:00;;;;;;;10.95;6.97;;;12.30;99.90;;;;;;5048076;28;20040;-46
2022/07/23 05:32:25;;;;;;;9.10;6.13;;;12.60;99.90;;;;;;5047574;28;20432;-47
2022/07/23 05:34:51;;;;;;;9.65;6.30;;;12.80;99.90;;;;;;5047211;28;20041;-46
2022/07/23 05:37:17;;;;;;;10.10;6.30;;;13.60;99.90;;;;;;5047518;28;20045;-46
2022/07/23 05:39:43;;;;;;;13.43;6.45;;;13.10;99.90;;;;;;5047331;28;20372;-50
2022/07/23 05:42:09;;;;;;;8.43;6.15;;;14.30;99.90;;;;;;5047442;28;20048;-46
2022/07/23 05:44:35;;;;;;;12.88;6.05;;;14.20;99.90;;;;;;5047378;28;20128;-46
2022/07/23 05:47:01;;;;;;;8.25;5.93;;;14.80;99.90;;;;;;5047900;28;20045;-47
2022/07/23 05:49:26;;;;;;;9.15;5.70;;;15.20;99.90;;;;;;5047211;28;20043;-46
2022/07/23 05:51:52;;;;;;;7.32;4.82;;;15.20;99.90;;;;;;5047604;28;20493;-47
2022/07/23 05:54:18;;;;;;;7.38;5.30;;;15.20;99.90;;;;;;5029674;28;20045;-48
2022/07/23 05:56:43;;;;;;;7.78;4.43;;;15.20;99.90;;;;;;5046608;28;20071;-46
2022/07/23 05:59:09;;;;;;;6.25;4.00;;;15.30;99.90;;;;;;5047315;28;20045;-46
2022/07/23 06:01:35;;;;;;;5.03;3.55;;;15.40;99.90;;;;;;5047277;28;20056;-47
2022/07/23 06:04:00;;;;;;;5.85;3.83;;;15.60;99.90;;;;;;5047161;28;20120;-46
2022/07/23 06:06:26;;;;;;;7.75;3.28;;;16.10;99.90;;;;;;5046713;28;20063;-48
2022/07/23 06:08:52;;;;;;;5.18;3.17;;;16.70;99.90;;;;;;5046872;28;20057;-47
2022/07/23 06:11:17;;;;;;;5.40;3.55;;;17.40;99.90;;;;;;5046704;28;20067;-49
2022/07/23 06:13:43;;;;;;;6.53;3.38;;;19.20;99.90;;;;;;5029308;28;20041;-49
2022/07/23 06:16:09;;;;;;;4.20;2.88;;;19.50;99.90;;;;;;5046961;28;20076;-49
2022/07/23 06:18:34;;;;;;;3.42;2.08;;;19.20;99.90;;;;;;5046413;28;20049;-47
2022/07/23 06:21:00;;;;;;;2.60;1.75;;;19.70;99.90;;;;;;5046495;28;20135;-47
2022/07/23 06:23:26;;;;;;;3.13;2.15;;;19.60;99.90;;;;;;5028817;28;20081;-48
2022/07/23 06:25:52;;;;;;;5.75;2.03;;;19.50;99.90;;;;;;5046506;28;20071;-49
2022/07/23 06:28:17;;;;;;;2.83;1.38;;;20.10;99.90;;;;;;5045778;28;20047;-48
2022/07/23 06:30:43;;;;;;;2.25;1.20;;;20.80;99.90;;;;;;5046226;28;20059;-47
2022/07/23 06:33:09;;;;;;;2.97;1.13;;;20.70;99.90;;;;;;5029232;28;20441;-49
2022/07/23 06:35:35;;;;;;;2.25;0.82;;;21.40;99.90;;;;;;5046143;28;20041;-47
2022/07/23 06:38:00;;;;;;;2.15;0.40;;;22.30;99.90;;;;;;5045968;28;20044;-48
2022/07/23 06:40:26;;;;;;;4.25;0.73;;;23.40;99.90;;;;;;5046698;28;20110;-50
2022/07/23 06:42:52;;;;;;;1.45;0.40;;;23.90;99.90;;;;;;5046171;28;20505;-47
2022/07/23 06:45:20;;;;;;;3.97;0.40;;;25.00;98.20;;;;;;5046201;28;20041;-50
2022/07/23 06:47:46;;;;;;;2.97;0.60;;;26.60;93.70;;;;;;5045730;28;20045;-50
2022/07/23 06:50:11;;;;;;;2.65;0.47;;;28.00;89.60;;;;;;5046259;28;20136;-49
2022/07/23 06:52:37;;;;;;;4.55;0.30;;;29.00;83.80;;;;;;5046390;28;20051;-48
2022/07/23 06:55:03;;;;;;;1.60;0.30;;;29.80;78.00;;;;;;5046802;28;20368;-50
2022/07/23 06:57:29;;;;;;;1.17;0.20;;;30.50;73.00;;;;;;5029039;28;20060;-53
2022/07/23 06:59:54;;;;;;;4.20;0.35;;;31.40;71.10;;;;;;5046521;28;20787;-48
2022/07/23 07:02:20;;;;;;;2.10;0.30;;;32.20;68.10;;;;;;5046688;28;20049;-47
2022/07/23 07:04:45;;;;;;;0.40;0.20;;;32.70;65.50;;;;;;5046906;28;20063;-50
2022/07/23 07:07:12;;;;;;;0.73;0.22;;;33.00;63.80;;;;;;5046782;28;20041;-50
2022/07/23 07:09:37;;;;;;;1.85;0.40;;;33.50;62.00;;;;;;5046409;28;20120;-49
2022/07/23 07:12:04;;;;;;;1.33;0.20;;;34.00;59.90;;;;;;5046580;28;20171;-56
2022/07/23 07:14:29;;;;;;;1.33;0.17;;;34.50;58.40;;;;;;5029102;28;20126;-63
2022/07/23 07:16:55;;;;;;;2.80;0.20;;;34.50;57.40;;;;;;5029490;28;20115;-63
2022/07/23 07:19:21;;;;;;;1.50;0.30;;;33.90;58.00;;;;;;5047345;28;20045;-63
2022/07/23 07:21:47;;;;;;;3.03;0.30;;;34.20;57.00;;;;;;5028898;28;20040;-63
2022/07/23 07:24:12;;;;;;;1.65;0.30;;;34.60;55.80;;;;;;5047152;28;20041;-63
2022/07/23 07:26:39;;;;;;;1.67;0.10;;;34.70;54.90;;;;;;5028705;28;20057;-63
2022/07/23 07:29:05;;;;;;;1.77;0.10;;;35.30;54.80;;;;;;5046898;28;20069;-63
2022/07/23 07:31:31;;;;;;;0.65;0.10;;;34.90;54.40;;;;;;5046338;28;20851;-63
2022/07/23 07:33:57;;;;;;;0.80;0.10;;;34.40;53.70;;;;;;5046203;28;20078;-64
2022/07/23 07:36:23;;;;;;;3.20;0.10;;;33.30;53.70;;;;;;5029033;28;20045;-64
2022/07/23 07:38:49;;;;;;;0.43;0.08;;;33.20;54.00;;;;;;5046530;28;20539;-63
2022/07/23 07:41:15;;;;;;;0.43;0.10;;;32.90;54.60;;;;;;5046740;28;20076;-64
2022/07/23 07:43:41;;;;;;;1.75;0.10;;;33.60;54.80;;;;;;5049485;28;20051;-53
2022/07/23 07:46:09;;;;;;;4.38;0.28;;;32.70;53.80;;;;;;5050121;28;20041;-54
2022/07/23 07:48:39;;;;;;;2.10;0.20;;;31.70;54.60;;;;;;5050724;28;20390;-54
2022/07/23 07:51:05;;;;;;;1.65;0.10;;;32.30;54.90;;;;;;5053272;28;20402;-54
2022/07/23 07:53:30;;;;;;;0.38;0.10;;;32.90;54.10;;;;;;5053367;28;20041;-54
2022/07/23 07:55:56;;;;;;;0.20;0.00;;;34.20;53.20;;;;;;5052496;28;20037;-54
2022/07/23 07:58:22;;;;;;;2.05;0.10;;;35.20;52.40;;;;;;5052584;28;20662;-54
2022/07/23 08:00:48;;;;;;;0.93;0.10;;;36.20;51.20;;;;;;5051922;28;20124;-55
2022/07/23 08:03:13;;;;;;;1.83;0.10;;;36.50;50.40;;;;;;5051691;28;20041;-54
2022/07/23 08:05:39;;;;;;;1.63;0.05;;;36.00;49.40;;;;;;5051504;28;20036;-54
2022/07/23 08:08:05;;;;;;;0.50;0.10;;;34.90;49.40;;;;;;5051566;28;20510;-54
2022/07/23 08:10:31;;;;;;;0.57;0.00;;;35.50;50.10;;;;;;5051155;28;20048;-54
2022/07/23 08:12:58;;;;;;;0.32;0.00;;;34.80;49.30;;;;;;5051787;28;20036;-54
2022/07/23 08:15:26;;;;;;;0.98;0.10;;;33.60;50.30;;;;;;5052414;28;20049;-54
2022/07/23 08:17:52;;;;;;;1.55;0.03;;;32.60;51.00;;;;;;5052490;28;20433;-53
2022/07/23 08:20:20;;;;;;;1.35;0.00;;;31.70;51.40;;;;;;5052393;28;20048;-53
2022/07/23 08:22:55;;;;;;;0.63;0.00;;;30.90;51.90;;;;;;5052128;28;20308;-52
2022/07/23 08:25:23;;;;;;;0.43;0.00;;;30.10;54.00;;;;;;5051891;28;20076;-53
2022/07/23 08:27:50;;;;;;;1.73;0.08;;;29.30;55.00;;;;;;5051880;28;20060;-53
2022/07/23 08:30:16;;;;;;;2.83;0.00;;;28.90;56.10;;;;;;5051491;28;20388;-53
2022/07/23 08:32:57;;;;;;;0.82;0.10;;;29.50;56.40;;;;;;5051882;28;20045;-54
2022/07/23 08:35:37;;;;;;;2.80;0.10;;;29.50;55.10;;;;;;5052020;28;20033;-53
2022/07/23 08:38:05;;;;;;;0.70;0.00;;;29.40;55.80;;;;;;5051872;28;20057;-52
2022/07/23 08:40:33;;;;;;;0.70;0.00;;;29.90;55.80;;;;;;5051372;28;20097;-53
2022/07/23 08:42:59;;;;;;;0.80;0.10;;;29.70;55.60;;;;;;5016873;28;20049;-53
2022/07/23 08:45:27;;;;;;;2.38;0.10;;;29.30;56.10;;;;;;5051606;28;20045;-54
2022/07/23 08:48:00;;;;;;;2.20;0.10;;;30.30;55.90;;;;;;5051154;28;20087;-54
2022/07/23 08:50:26;;;;;;;2.97;0.15;;;31.90;54.20;;;;;;5051289;28;20526;-54
2022/07/23 08:52:53;;;;;;;1.70;0.00;;;33.70;53.00;;;;;;5051398;28;20048;-54
2022/07/23 08:55:22;;;;;;;1.25;0.05;;;35.00;51.20;;;;;;5050978;28;20056;-54
2022/07/23 08:57:49;;;;;;;0.43;0.00;;;36.50;48.80;;;;;;5050989;28;20138;-54
2022/07/23 09:00:16;;;;;;;1.23;0.00;;;36.70;47.30;;;;;;5050774;28;20076;-54
2022/07/23 09:02:44;;;;;;;1.50;0.10;;;36.00;47.20;;;;;;5050670;28;20491;-52
2022/07/23 09:05:12;;;;;;;2.55;0.10;;;36.60;46.90;;;;;;5050656;28;20044;-53
2022/07/23 09:07:58;;;;;;;0.65;0.00;;;37.60;46.10;;;;;;5050335;28;20056;-54
2022/07/23 09:10:24;;;;;;;0.85;0.10;;;38.00;45.00;;;;;;5050194;28;20041;-54
2022/07/23 09:12:49;;;;;;;0.35;0.00;;;38.10;44.10;;;;;;5051002;28;20048;-53
2022/07/23 09:15:15;;;;;;;1.30;0.00;;;37.00;44.10;;;;;;5050910;28;20041;-53
2022/07/23 09:17:42;;;;;;;1.40;0.10;;;36.10;44.40;;;;;;5050986;28;20120;-53
2022/07/23 09:20:13;;;;;;;0.50;0.00;;;35.10;45.60;;;;;;5050468;28;20490;-53
2022/07/23 09:22:45;;;;;;;1.02;0.00;;;35.50;46.10;;;;;;5032108;28;20132;-53
2022/07/23 09:25:10;;;;;;;0.65;0.00;;;36.30;45.70;;;;;;5050632;28;20047;-54
2022/07/23 09:27:57;;;;;;;0.17;0.00;;;37.20;45.00;;;;;;5050467;28;20053;-52
2022/07/23 09:30:28;;;;;;;1.08;0.00;;;38.20;44.70;;;;;;5033107;28;20087;-54
2022/07/23 09:33:06;;;;;;;0.40;0.00;;;39.10;42.50;;;;;;5050408;28;20404;-53
2022/07/23 09:35:52;;;;;;;0.57;0.00;;;40.00;42.70;;;;;;5050469;28;20041;-53
2022/07/23 09:38:20;;;;;;;0.70;0.00;;;40.90;42.60;;;;;;5050402;28;20045;-53
2022/07/23 09:40:47;;;;;;;0.60;0.00;;;41.70;41.40;;;;;;5050349;28;20087;-50
2022/07/23 09:43:28;;;;;;;0.73;0.10;;;42.00;40.00;;;;;;5050077;28;20394;-50
2022/07/23 09:45:53;;;;;;;0.82;0.00;;;40.90;39.20;;;;;;5050544;28;20130;-51
2022/07/23 09:48:19;;;;;;;1.33;0.17;;;39.30;39.90;;;;;;5049963;28;20588;-51
2022/07/23 09:50:45;;;;;;;0.35;0.00;;;37.50;41.20;;;;;;5049821;28;20110;-50
2022/07/23 09:53:25;;;;;;;2.58;0.10;;;36.00;42.20;;;;;;5050224;28;20526;-51
2022/07/23 09:55:54;;;;;;;1.15;0.00;;;34.50;44.10;;;;;;5049967;28;20087;-52
2022/07/23 09:58:22;;;;;;;0.57;0.00;;;34.30;46.20;;;;;;5049345;28;20542;-52
2022/07/23 10:00:49;;;;;;;0.80;0.10;;;35.50;45.40;;;;;;5050073;28;20566;-53
2022/07/23 10:03:17;;;;;;;0.65;0.00;;;35.60;43.60;;;;;;5049109;28;20403;-53
2022/07/23 10:05:43;;;;;;;1.67;0.00;;;35.00;44.60;;;;;;5031496;28;20485;-48
2022/07/23 10:08:12;;;;;;;1.65;0.13;;;34.70;45.10;;;;;;5048933;28;20053;-49
2022/07/23 10:10:41;;;;;;;0.57;0.10;;;34.00;45.10;;;;;;5048904;28;20041;-49
2022/07/23 10:15:51;;;;;;;1.45;0.10;;;33.20;47.20;;;;;;5048995;28;20052;-52
2022/07/23 10:18:17;;;;;;;0.10;0.00;;;33.20;45.80;;;;;;5030918;28;20477;-50
2022/07/23 10:20:43;;;;;;;0.68;0.00;;;32.90;53.80;;;;;;5049219;28;20041;-50
2022/07/23 10:23:35;;;;;;;1.20;0.05;;;32.20;47.70;;;;;;5048553;28;20045;-49
2022/07/23 10:26:17;;;;;;;0.80;0.10;;;31.90;49.00;;;;;;5047478;28;20044;-51
2022/07/23 10:29:03;;;;;;;0.47;0.10;;;31.50;48.90;;;;;;5048102;28;20494;-50
2022/07/23 10:31:50;;;;;;;1.02;0.10;;;31.40;49.30;;;;;;5047868;28;20053;-50
2022/07/23 10:34:19;;;;;;;1.25;0.00;;;30.80;49.90;;;;;;5048299;28;20253;-48
2022/07/23 10:36:56;;;;;;;0.80;0.10;;;30.10;51.50;;;;;;5048003;28;20044;-49
2022/07/23 10:39:32;;;;;;;0.52;0.03;;;29.70;52.10;;;;;;5048339;28;20105;-49
2022/07/23 10:42:15;;;;;;;1.52;0.10;;;30.00;52.00;;;;;;5048064;28;20044;-50
2022/07/23 10:44:47;;;;;;;0.90;0.10;;;30.10;52.10;;;;;;5047812;28;20511;-51
2022/07/23 10:47:41;;;;;;;0.40;0.05;;;29.80;51.40;;;;;;5047405;28;20055;-50
2022/07/23 10:50:21;;;;;;;1.58;0.20;;;29.50;52.20;;;;;;5047763;28;20499;-48
2022/07/23 10:53:05;;;;;;;1.80;0.10;;;29.10;52.30;;;;;;5048126;28;20041;-50
2022/07/23 10:55:31;;;;;;;0.73;0.10;;;28.90;52.70;;;;;;5047726;28;20119;-50
2022/07/23 10:57:57;;;;;;;0.65;0.10;;;28.70;53.40;;;;;;5047457;28;20082;-48
2022/07/23 11:00:25;;;;;;;1.90;0.10;;;28.30;54.50;;;;;;5047658;28;20368;-50
2022/07/23 11:03:01;;;;;;;1.17;0.25;;;27.90;54.30;;;;;;5047992;28;20060;-48
2022/07/23 11:05:45;;;;;;;2.00;0.10;;;27.80;55.30;;;;;;5029777;28;20056;-50
2022/07/23 11:08:16;;;;;;;0.95;0.08;;;27.50;55.70;;;;;;5047475;28;20067;-49
2022/07/23 11:10:44;;;;;;;1.93;0.07;;;27.40;56.00;;;;;;5047884;28;20119;-49
2022/07/23 11:13:22;;;;;;;0.52;0.10;;;27.20;56.70;;;;;;5047574;28;20395;-48
2022/07/23 11:16:16;;;;;;;0.68;0.10;;;27.00;57.70;;;;;;5047994;28;20364;-49
2022/07/23 11:18:42;;;;;;;0.85;0.10;;;27.00;57.90;;;;;;5047613;28;20435;-47
2022/07/23 11:21:23;;;;;;;2.80;0.28;;;27.00;58.00;;;;;;5047529;28;20135;-49
2022/07/23 11:24:08;;;;;;;2.33;0.20;;;27.00;58.60;;;;;;5049847;28;20145;-49
2022/07/23 11:26:37;;;;;;;1.33;0.10;;;27.20;58.60;;;;;;5051514;28;20529;-49
2022/07/23 11:29:31;;;;;;;2.15;0.40;;;27.30;58.30;;;;;;5052167;28;20040;-48
2022/07/23 11:32:02;;;;;;;1.20;0.20;;;27.20;58.30;;;;;;5021725;28;20603;-48
2022/07/23 11:34:42;;;;;;;1.15;0.30;;;27.20;58.10;;;;;;5051391;28;20045;-49
2022/07/23 11:37:10;;;;;;;2.40;0.17;;;27.30;58.70;;;;;;5051635;28;20076;-51
2022/07/23 11:39:37;;;;;;;2.13;0.10;;;27.30;59.00;;;;;;5051421;28;20128;-49
2022/07/23 11:42:05;;;;;;;0.60;0.10;;;27.30;58.90;;;;;;5051730;28;20066;-48
2022/07/23 11:44:35;;;;;;;1.08;0.10;;;27.20;59.30;;;;;;5051085;28;20068;-48
2022/07/23 11:47:11;;;;;;;3.30;0.30;;;27.30;59.80;;;;;;5051020;28;20123;-51
2022/07/23 11:49:37;;;;;;;5.40;0.50;;;27.30;60.20;;;;;;5033080;28;20048;-49
2022/07/23 11:52:13;;;;;;;1.67;0.30;;;27.20;60.00;;;;;;5051787;28;20420;-49
2022/07/23 11:55:04;;;;;;;4.93;0.20;;;27.00;59.60;;;;;;5051419;28;20452;-49
2022/07/23 11:57:32;;;;;;;6.72;0.82;;;26.90;60.50;;;;;;5051678;28;20500;-51
2022/07/23 12:00:09;;;;;;;0.65;0.20;;;26.80;71.60;;;;;;5051494;28;20036;-48
2022/07/23 12:02:34;;;;;;;3.42;0.25;;;26.50;60.50;;;;;;5051023;28;20048;-50
2022/07/23 12:05:00;;;;;;;5.30;0.30;;;26.40;61.70;;;;;;5051231;28;20383;-49
2022/07/23 12:07:27;;;;;;;2.70;0.30;;;26.40;61.60;;;;;;5050921;28;20092;-49
2022/07/23 12:09:54;;;;;;;1.75;0.20;;;26.60;61.40;;;;;;5050387;28;20048;-50
2022/07/23 12:12:20;;;;;;;0.98;0.20;;;26.80;61.00;;;;;;5050302;28;20483;-48
2022/07/23 12:14:54;;;;;;;19.05;1.50;;;27.00;61.10;;;;;;5051113;28;20048;-49
2022/07/23 12:17:21;;;;;;;10.93;0.40;;;27.20;60.80;;;;;;5050223;28;20490;-49
2022/07/23 12:19:48;;;;;;;3.22;0.22;;;27.20;60.20;;;;;;5050326;28;20132;-49
2022/07/23 12:22:16;;;;;;;2.20;0.30;;;27.20;60.60;;;;;;5050567;28;20055;-51
2022/07/23 12:24:58;;;;;;;3.58;0.20;;;27.20;60.00;;;;;;5050469;28;20091;-50
2022/07/23 12:27:23;;;;;;;;;;;27.00;60.80;;;;;;5050474;28;20688;-49
2022/07/23 12:29:50;;;;;;;2.30;0.20;;;26.80;59.20;;;;;;5050389;28;20019;-49
2022/07/23 12:32:23;;;;;;;3.22;0.22;;;26.50;60.80;;;;;;5050515;28;20605;-48
2022/07/23 12:35:01;;;;;;;2.42;0.30;;;26.30;63.70;;;;;;5049869;28;20043;-52
2022/07/23 12:37:38;;;;;;;3.42;0.32;;;26.20;62.90;;;;;;5050710;28;20382;-50
2022/07/23 12:40:24;;;;;;;1.10;0.20;;;26.10;62.70;;;;;;5050664;28;20131;-48
2022/07/23 12:42:52;;;;;;;3.45;0.40;;;26.00;63.10;;;;;;5050160;28;20063;-52
2022/07/23 12:45:18;;;;;;;2.55;0.40;;;25.90;63.10;;;;;;5049844;28;20503;-50
2022/07/23 12:48:06;;;;;;;2.08;0.50;;;25.90;63.20;;;;;;5050163;28;20110;-50
2022/07/23 12:50:33;;;;;;;1.02;0.20;;;26.00;63.00;;;;;;5050170;28;20709;-49
2022/07/23 12:53:32;;;;;;;2.22;0.50;;;25.70;63.00;;;;;;5050583;28;20084;-50
2022/07/23 12:56:03;;;;;;;2.45;0.45;;;25.70;63.70;;;;;;5038930;28;20057;-50